createdAt,value
2018-05-02T00:02:07.499Z,10
2018-05-02T00:07:07.615Z,10
2018-05-02T00:12:07.395Z,10
2018-05-02T00:17:07.339Z,8
2018-05-02T00:22:07.523Z,10
2018-05-02T00:27:07.218Z,13
2018-05-02T00:32:07.470Z,11
2018-05-02T00:37:07.451Z,12
2018-05-02T00:42:07.345Z,11
2018-05-02T00:47:07.466Z,13
2018-05-02T00:52:07.130Z,14
2018-05-02T00:57:07.111Z,12
2018-05-02T01:02:07.311Z,16
2018-05-02T01:07:07.352Z,17
2018-05-02T01:12:07.414Z,22
2018-05-02T01:17:07.252Z,26
2018-05-02T01:22:07.331Z,32
2018-05-02T01:27:07.149Z,27
2018-05-02T01:32:07.309Z,32
2018-05-02T01:37:07.269Z,36
2018-05-02T01:42:07.245Z,35
2018-05-02T01:47:07.153Z,39
2018-05-02T01:52:07.309Z,33
2018-05-02T01:57:07.361Z,36
2018-05-02T02:02:07.142Z,35
2018-05-02T02:07:07.303Z,33
2018-05-02T02:12:07.209Z,42
2018-05-02T02:17:07.151Z,40
2018-05-02T02:22:07.385Z,36
2018-05-02T02:27:07.099Z,43
2018-05-02T02:32:07.094Z,47
2018-05-02T02:37:07.508Z,45
2018-05-02T02:42:07.200Z,34
2018-05-02T02:47:07.170Z,38
2018-05-02T02:52:07.308Z,46
2018-05-02T02:57:06.998Z,35
2018-05-02T03:02:07.101Z,42
2018-05-02T03:07:06.951Z,42
2018-05-02T03:12:07.233Z,41
2018-05-02T03:17:07.565Z,37
2018-05-02T03:22:06.891Z,37
2018-05-02T03:27:07.315Z,43
2018-05-02T03:32:07.044Z,42
2018-05-02T03:37:07.208Z,38
2018-05-02T03:42:07.307Z,38
2018-05-02T03:47:06.996Z,39
2018-05-02T03:52:07.153Z,35
2018-05-02T03:57:06.963Z,45
2018-05-02T04:02:06.881Z,44
2018-05-02T04:07:07.114Z,39
2018-05-02T04:12:06.993Z,43
2018-05-02T04:17:06.857Z,35
2018-05-02T04:22:07.168Z,43
2018-05-02T04:27:06.969Z,34
2018-05-02T04:32:06.839Z,34
2018-05-02T04:37:07.057Z,38
2018-05-02T04:42:07.060Z,42
2018-05-02T04:47:06.877Z,39
2018-05-02T04:52:06.952Z,42
2018-05-02T04:57:07.064Z,35
2018-05-02T05:02:06.875Z,37
2018-05-02T05:07:07.121Z,41
2018-05-02T05:12:06.942Z,28
2018-05-02T05:17:07.072Z,39
2018-05-02T05:22:06.839Z,35
2018-05-02T05:27:07.026Z,31
2018-05-02T05:32:07.134Z,32
2018-05-02T05:37:06.820Z,32
2018-05-02T05:42:07.026Z,38
2018-05-02T05:47:06.788Z,40
2018-05-02T05:52:06.701Z,35
2018-05-02T05:57:06.989Z,35
2018-05-02T06:02:07.032Z,34
2018-05-02T06:07:06.951Z,31
2018-05-02T06:12:06.916Z,38
2018-05-02T06:17:06.983Z,26
2018-05-02T06:22:06.966Z,32
2018-05-02T06:27:06.904Z,31
2018-05-02T06:32:06.650Z,26
2018-05-02T06:37:06.704Z,23
2018-05-02T06:42:06.796Z,30
2018-05-02T06:47:06.699Z,20
2018-05-02T06:52:06.857Z,18
2018-05-02T06:57:06.662Z,26
2018-05-02T07:02:06.756Z,23
2018-05-02T07:07:06.627Z,16
2018-05-02T07:12:06.564Z,20
2018-05-02T07:17:06.651Z,21
2018-05-02T07:22:06.768Z,20
2018-05-02T07:27:06.639Z,17
2018-05-02T07:32:06.880Z,27
2018-05-02T07:37:06.593Z,23
2018-05-02T07:42:06.705Z,22
2018-05-02T07:47:06.832Z,14
2018-05-02T07:52:06.533Z,13
2018-05-02T07:57:06.589Z,18
2018-05-02T08:02:06.498Z,18
2018-05-02T08:07:06.653Z,15
2018-05-02T08:12:06.572Z,17
2018-05-02T08:17:06.708Z,17
2018-05-02T08:22:06.676Z,13
2018-05-02T08:27:06.798Z,13
2018-05-02T08:32:06.730Z,18
2018-05-02T08:37:06.470Z,12
2018-05-02T08:42:06.818Z,18
2018-05-02T08:47:07.094Z,11
2018-05-02T08:52:06.544Z,6
2018-05-02T08:57:06.706Z,11
2018-05-02T09:02:06.609Z,8
2018-05-02T09:07:06.745Z,11
2018-05-02T09:12:06.613Z,12
2018-05-02T09:17:06.495Z,11
2018-05-02T09:22:06.753Z,14
2018-05-02T09:27:06.407Z,5
2018-05-02T09:32:06.656Z,7
2018-05-02T09:37:06.462Z,6
2018-05-02T09:42:06.566Z,7
2018-05-02T09:47:06.395Z,5
2018-05-02T09:52:06.609Z,5
2018-05-02T09:57:06.334Z,5
2018-05-02T10:02:06.562Z,4
2018-05-02T10:07:06.607Z,4
2018-05-02T10:12:06.313Z,4
2018-05-02T10:17:06.312Z,7
2018-05-02T10:22:06.458Z,5
2018-05-02T10:27:06.338Z,7
2018-05-02T10:32:06.443Z,5
2018-05-02T10:37:06.489Z,5
2018-05-02T10:42:06.230Z,6
2018-05-02T10:47:06.420Z,5
2018-05-02T10:52:06.298Z,15
2018-05-02T10:57:06.432Z,20
2018-05-02T11:02:06.556Z,7
2018-05-02T11:07:06.225Z,7
2018-05-02T11:12:06.313Z,12
2018-05-02T11:17:06.534Z,11
2018-05-02T11:22:06.468Z,7
2018-05-02T11:27:06.216Z,7
2018-05-02T11:32:06.351Z,7
2018-05-02T11:37:06.511Z,16
2018-05-02T11:42:06.274Z,10
2018-05-02T11:47:06.460Z,12
2018-05-02T11:52:06.477Z,12
2018-05-02T11:57:06.146Z,9
2018-05-02T12:02:06.182Z,9
2018-05-02T12:07:06.435Z,11
2018-05-02T12:12:06.253Z,9
2018-05-02T12:17:06.376Z,9
2018-05-02T12:22:06.375Z,8
2018-05-02T12:27:06.305Z,9
2018-05-02T12:32:06.409Z,5
2018-05-02T12:37:06.219Z,7
2018-05-02T12:42:06.297Z,11
2018-05-02T12:47:06.312Z,9
2018-05-02T12:52:06.285Z,7
2018-05-02T12:57:06.165Z,9
2018-05-02T13:02:06.334Z,11
2018-05-02T13:07:06.143Z,11
2018-05-02T13:12:06.209Z,9
2018-05-02T13:17:05.998Z,8
2018-05-02T13:22:06.258Z,5
2018-05-02T13:27:06.281Z,8
2018-05-02T13:32:06.186Z,5
2018-05-02T13:37:06.324Z,8
2018-05-02T13:42:06.326Z,9
2018-05-02T13:47:06.284Z,6
2018-05-02T13:52:06.063Z,9
2018-05-02T13:57:06.177Z,5
2018-05-02T14:02:06.236Z,14
2018-05-02T14:07:06.199Z,5
2018-05-02T14:12:06.250Z,5
2018-05-02T14:17:06.196Z,5
2018-05-02T14:22:05.976Z,7
2018-05-02T14:27:05.995Z,5
2018-05-02T14:32:06.082Z,10
2018-05-02T14:37:05.965Z,6
2018-05-02T14:42:06.187Z,3
2018-05-02T14:47:06.557Z,3
2018-05-02T14:52:05.898Z,6
2018-05-02T14:57:06.008Z,4
2018-05-02T15:02:06.123Z,4
2018-05-02T15:07:05.908Z,5
2018-05-02T15:12:06.040Z,4
2018-05-02T15:17:05.959Z,5
2018-05-02T15:22:05.985Z,4
2018-05-02T15:27:05.887Z,4
2018-05-02T15:32:05.966Z,4
2018-05-02T15:37:05.794Z,5
2018-05-02T15:42:05.875Z,4
2018-05-02T15:47:05.780Z,4
2018-05-02T15:52:05.927Z,4
2018-05-02T15:57:06.123Z,7
2018-05-02T16:02:06.056Z,6
2018-05-02T16:07:05.811Z,8
2018-05-02T16:12:05.797Z,7
2018-05-02T16:17:05.869Z,6
2018-05-02T16:22:05.981Z,10
2018-05-02T16:27:05.729Z,9
2018-05-02T16:32:05.842Z,8
2018-05-02T16:37:05.771Z,12
2018-05-02T16:42:05.933Z,10
2018-05-02T16:47:05.903Z,9
2018-05-02T16:52:06.184Z,15
2018-05-02T16:57:05.735Z,11
2018-05-02T17:02:05.706Z,10
2018-05-02T17:07:05.992Z,11
2018-05-02T17:12:05.990Z,8
2018-05-02T17:17:05.839Z,9
2018-05-02T17:22:05.828Z,7
2018-05-02T17:27:06.322Z,8
2018-05-02T17:32:05.683Z,6
2018-05-02T17:37:05.991Z,8
2018-05-02T17:42:05.613Z,9
2018-05-02T17:47:06.007Z,4
2018-05-02T17:52:05.973Z,6
2018-05-02T17:57:05.735Z,7
2018-05-02T18:02:05.972Z,4
2018-05-02T18:07:05.874Z,7
2018-05-02T18:12:05.814Z,7
2018-05-02T18:17:05.691Z,7
2018-05-02T18:22:05.898Z,7
2018-05-02T18:27:05.789Z,9
2018-05-02T18:32:05.914Z,8
2018-05-02T18:37:05.668Z,11
2018-05-02T18:42:05.792Z,11
2018-05-02T18:47:05.706Z,11
2018-05-02T18:52:05.716Z,12
2018-05-02T18:57:05.632Z,12
2018-05-02T19:02:05.640Z,11
2018-05-02T19:07:05.605Z,11
2018-05-02T19:12:05.586Z,12
2018-05-02T19:17:05.526Z,15
2018-05-02T19:22:05.631Z,12
2018-05-02T19:27:05.532Z,16
2018-05-02T19:32:05.645Z,16
2018-05-02T19:37:05.835Z,16
2018-05-02T19:42:05.606Z,19
2018-05-02T19:47:05.744Z,22
2018-05-02T19:52:05.774Z,22
2018-05-02T19:57:05.658Z,21
2018-05-02T20:02:05.662Z,27
2018-05-02T20:07:05.722Z,21
2018-05-02T20:12:05.404Z,18
2018-05-02T20:17:05.753Z,21
2018-05-02T20:22:05.543Z,24
2018-05-02T20:27:05.365Z,28
2018-05-02T20:32:05.386Z,22
2018-05-02T20:37:05.426Z,27
2018-05-02T20:42:05.472Z,28
2018-05-02T20:47:05.686Z,22
2018-05-02T20:52:05.703Z,24
2018-05-02T20:57:05.618Z,20
2018-05-02T21:02:05.703Z,22
2018-05-02T21:07:05.677Z,22
2018-05-02T21:12:05.535Z,22
2018-05-02T21:17:05.506Z,24
2018-05-02T21:22:05.442Z,22
2018-05-02T21:27:05.651Z,21
2018-05-02T21:32:05.561Z,22
2018-05-02T21:37:05.542Z,23
2018-05-02T21:42:05.565Z,24
2018-05-02T21:47:05.557Z,25
2018-05-02T21:52:05.343Z,25
2018-05-02T21:57:05.440Z,24
2018-05-02T22:02:05.224Z,27
2018-05-02T22:07:05.277Z,20
2018-05-02T22:12:05.286Z,9
2018-05-02T22:17:05.183Z,13
2018-05-02T22:22:05.197Z,9
2018-05-02T22:27:05.291Z,11
2018-05-02T22:32:05.449Z,10
2018-05-02T22:37:05.209Z,17
2018-05-02T22:42:05.380Z,10
2018-05-02T22:47:05.308Z,10
2018-05-02T22:52:05.451Z,15
2018-05-02T22:57:05.211Z,10
2018-05-02T23:02:05.213Z,12
2018-05-02T23:07:05.204Z,6
2018-05-02T23:12:05.270Z,9
2018-05-02T23:17:05.357Z,8
2018-05-02T23:22:05.238Z,7
2018-05-02T23:27:05.221Z,8
2018-05-02T23:32:05.301Z,8
2018-05-02T23:37:05.215Z,6
2018-05-02T23:42:05.164Z,7
2018-05-02T23:47:05.139Z,7
2018-05-02T23:52:05.311Z,7
2018-05-02T23:57:05.325Z,10
